sensor_id;sensor_type;location;lat;lon;timestamp;P1;durP1;ratioP1;P2;durP2;ratioP2
57311;SDS011;43154;50.966;18.316;2023-04-04T00:00:07;18.80;;;6.50;;
57311;SDS011;43154;50.966;18.316;2023-04-04T00:02:34;24.40;;;7.90;;
57311;SDS011;43154;50.966;18.316;2023-04-04T00:05:00;19.40;;;6.30;;
57311;SDS011;43154;50.966;18.316;2023-04-04T00:07:26;21.10;;;6.70;;
57311;SDS011;43154;50.966;18.316;2023-04-04T00:09:52;21.90;;;7.10;;
57311;SDS011;43154;50.966;18.316;2023-04-04T00:12:18;20.50;;;6.70;;
57311;SDS011;43154;50.966;18.316;2023-04-04T00:14:43;22.60;;;6.60;;
57311;SDS011;43154;50.966;18.316;2023-04-04T00:17:10;19.90;;;6.60;;
57311;SDS011;43154;50.966;18.316;2023-04-04T00:19:35;21.80;;;6.80;;
57311;SDS011;43154;50.966;18.316;2023-04-04T00:22:01;22.00;;;7.30;;
57311;SDS011;43154;50.966;18.316;2023-04-04T00:24:27;22.20;;;7.10;;
57311;SDS011;43154;50.966;18.316;2023-04-04T00:26:53;20.90;;;6.50;;
57311;SDS011;43154;50.966;18.316;2023-04-04T00:29:19;22.90;;;7.40;;
57311;SDS011;43154;50.966;18.316;2023-04-04T00:31:45;19.90;;;6.70;;
57311;SDS011;43154;50.966;18.316;2023-04-04T00:34:11;19.50;;;6.80;;
57311;SDS011;43154;50.966;18.316;2023-04-04T00:36:37;19.10;;;6.50;;
57311;SDS011;43154;50.966;18.316;2023-04-04T00:39:03;20.50;;;7.20;;
57311;SDS011;43154;50.966;18.316;2023-04-04T00:41:29;21.90;;;6.80;;
57311;SDS011;43154;50.966;18.316;2023-04-04T00:43:55;18.60;;;6.20;;
57311;SDS011;43154;50.966;18.316;2023-04-04T00:46:26;19.30;;;6.30;;
57311;SDS011;43154;50.966;18.316;2023-04-04T00:48:54;20.60;;;6.30;;
57311;SDS011;43154;50.966;18.316;2023-04-04T00:51:25;21.00;;;6.60;;
57311;SDS011;43154;50.966;18.316;2023-04-04T00:53:52;19.10;;;6.60;;
57311;SDS011;43154;50.966;18.316;2023-04-04T00:56:18;20.30;;;6.10;;
57311;SDS011;43154;50.966;18.316;2023-04-04T00:58:45;21.80;;;6.90;;
57311;SDS011;43154;50.966;18.316;2023-04-04T01:01:11;22.00;;;7.00;;
57311;SDS011;43154;50.966;18.316;2023-04-04T01:03:37;18.70;;;6.40;;
57311;SDS011;43154;50.966;18.316;2023-04-04T01:06:04;19.60;;;6.50;;
57311;SDS011;43154;50.966;18.316;2023-04-04T01:08:31;19.40;;;7.00;;
57311;SDS011;43154;50.966;18.316;2023-04-04T01:10:57;19.20;;;6.60;;
57311;SDS011;43154;50.966;18.316;2023-04-04T01:13:23;15.80;;;5.40;;
57311;SDS011;43154;50.966;18.316;2023-04-04T01:15:51;17.20;;;5.70;;
57311;SDS011;43154;50.966;18.316;2023-04-04T01:18:18;22.30;;;7.00;;
57311;SDS011;43154;50.966;18.316;2023-04-04T01:21:01;19.70;;;6.30;;
57311;SDS011;43154;50.966;18.316;2023-04-04T01:23:31;18.50;;;6.80;;
57311;SDS011;43154;50.966;18.316;2023-04-04T01:26:01;19.90;;;7.00;;
57311;SDS011;43154;50.966;18.316;2023-04-04T01:28:29;22.90;;;7.80;;
57311;SDS011;43154;50.966;18.316;2023-04-04T01:30:56;21.90;;;7.10;;
57311;SDS011;43154;50.966;18.316;2023-04-04T01:33:28;17.30;;;6.30;;
57311;SDS011;43154;50.966;18.316;2023-04-04T01:38:29;21.80;;;6.90;;
57311;SDS011;43154;50.966;18.316;2023-04-04T01:41:05;18.80;;;6.40;;
57311;SDS011;43154;50.966;18.316;2023-04-04T01:43:33;17.00;;;6.40;;
57311;SDS011;43154;50.966;18.316;2023-04-04T01:46:00;19.80;;;6.70;;
57311;SDS011;43154;50.966;18.316;2023-04-04T01:48:26;18.60;;;6.50;;
57311;SDS011;43154;50.966;18.316;2023-04-04T01:50:52;17.50;;;5.80;;
57311;SDS011;43154;50.966;18.316;2023-04-04T01:53:18;18.30;;;6.60;;
57311;SDS011;43154;50.966;18.316;2023-04-04T01:55:44;18.00;;;6.30;;
57311;SDS011;43154;50.966;18.316;2023-04-04T01:58:09;19.50;;;6.20;;
57311;SDS011;43154;50.966;18.316;2023-04-04T02:00:36;18.60;;;6.10;;
57311;SDS011;43154;50.966;18.316;2023-04-04T02:03:02;19.50;;;6.70;;
57311;SDS011;43154;50.966;18.316;2023-04-04T02:05:28;22.30;;;7.10;;
57311;SDS011;43154;50.966;18.316;2023-04-04T02:07:53;19.50;;;7.20;;
57311;SDS011;43154;50.966;18.316;2023-04-04T02:10:20;21.30;;;7.50;;
57311;SDS011;43154;50.966;18.316;2023-04-04T02:12:46;21.10;;;6.80;;
57311;SDS011;43154;50.966;18.316;2023-04-04T02:15:11;17.50;;;5.70;;
57311;SDS011;43154;50.966;18.316;2023-04-04T02:17:38;18.00;;;6.20;;
57311;SDS011;43154;50.966;18.316;2023-04-04T02:20:05;21.90;;;7.10;;
57311;SDS011;43154;50.966;18.316;2023-04-04T02:22:32;18.20;;;6.60;;
57311;SDS011;43154;50.966;18.316;2023-04-04T02:24:58;19.50;;;7.00;;
57311;SDS011;43154;50.966;18.316;2023-04-04T02:27:27;19.80;;;7.40;;
57311;SDS011;43154;50.966;18.316;2023-04-04T02:29:53;19.60;;;6.90;;
57311;SDS011;43154;50.966;18.316;2023-04-04T02:32:20;19.70;;;7.30;;
57311;SDS011;43154;50.966;18.316;2023-04-04T02:34:46;23.30;;;7.30;;
57311;SDS011;43154;50.966;18.316;2023-04-04T02:37:11;20.00;;;7.50;;
57311;SDS011;43154;50.966;18.316;2023-04-04T02:39:37;22.40;;;8.00;;
57311;SDS011;43154;50.966;18.316;2023-04-04T02:42:03;24.00;;;8.00;;
57311;SDS011;43154;50.966;18.316;2023-04-04T02:44:30;22.40;;;7.80;;
57311;SDS011;43154;50.966;18.316;2023-04-04T02:46:56;24.50;;;8.40;;
57311;SDS011;43154;50.966;18.316;2023-04-04T02:49:27;23.30;;;7.70;;
57311;SDS011;43154;50.966;18.316;2023-04-04T02:51:54;24.00;;;8.00;;
57311;SDS011;43154;50.966;18.316;2023-04-04T02:54:20;22.90;;;8.20;;
57311;SDS011;43154;50.966;18.316;2023-04-04T02:56:46;23.40;;;8.20;;
57311;SDS011;43154;50.966;18.316;2023-04-04T02:59:12;23.70;;;7.90;;
57311;SDS011;43154;50.966;18.316;2023-04-04T03:01:37;25.00;;;8.60;;
57311;SDS011;43154;50.966;18.316;2023-04-04T03:04:03;24.00;;;8.10;;
57311;SDS011;43154;50.966;18.316;2023-04-04T03:06:31;23.90;;;8.20;;
57311;SDS011;43154;50.966;18.316;2023-04-04T03:08:58;25.30;;;9.80;;
57311;SDS011;43154;50.966;18.316;2023-04-04T03:11:30;25.10;;;9.30;;
57311;SDS011;43154;50.966;18.316;2023-04-04T03:13:56;25.50;;;8.60;;
57311;SDS011;43154;50.966;18.316;2023-04-04T03:16:22;22.70;;;9.30;;
57311;SDS011;43154;50.966;18.316;2023-04-04T03:18:47;24.10;;;8.90;;
57311;SDS011;43154;50.966;18.316;2023-04-04T03:21:14;23.90;;;9.50;;
57311;SDS011;43154;50.966;18.316;2023-04-04T03:23:41;24.60;;;9.00;;
57311;SDS011;43154;50.966;18.316;2023-04-04T03:26:08;24.00;;;8.20;;
57311;SDS011;43154;50.966;18.316;2023-04-04T03:28:34;19.30;;;7.50;;
57311;SDS011;43154;50.966;18.316;2023-04-04T03:31:03;21.80;;;8.00;;
57311;SDS011;43154;50.966;18.316;2023-04-04T03:33:31;23.10;;;8.50;;
57311;SDS011;43154;50.966;18.316;2023-04-04T03:36:01;22.30;;;7.90;;
57311;SDS011;43154;50.966;18.316;2023-04-04T03:38:27;24.70;;;8.60;;
57311;SDS011;43154;50.966;18.316;2023-04-04T03:41:02;23.40;;;8.10;;
57311;SDS011;43154;50.966;18.316;2023-04-04T03:43:33;22.00;;;8.40;;
57311;SDS011;43154;50.966;18.316;2023-04-04T03:46:00;22.00;;;8.20;;
57311;SDS011;43154;50.966;18.316;2023-04-04T03:48:27;23.20;;;8.50;;
57311;SDS011;43154;50.966;18.316;2023-04-04T03:50:56;24.20;;;8.90;;
57311;SDS011;43154;50.966;18.316;2023-04-04T03:53:22;24.90;;;8.70;;
57311;SDS011;43154;50.966;18.316;2023-04-04T03:55:50;24.30;;;8.90;;
57311;SDS011;43154;50.966;18.316;2023-04-04T03:58:17;25.20;;;8.60;;
57311;SDS011;43154;50.966;18.316;2023-04-04T04:00:44;23.60;;;8.60;;
57311;SDS011;43154;50.966;18.316;2023-04-04T04:03:10;25.60;;;9.00;;
57311;SDS011;43154;50.966;18.316;2023-04-04T04:05:36;24.20;;;9.00;;
57311;SDS011;43154;50.966;18.316;2023-04-04T04:08:02;26.00;;;9.00;;
57311;SDS011;43154;50.966;18.316;2023-04-04T04:10:28;25.50;;;8.70;;
57311;SDS011;43154;50.966;18.316;2023-04-04T04:12:54;26.00;;;9.90;;
57311;SDS011;43154;50.966;18.316;2023-04-04T04:15:20;26.10;;;9.10;;
57311;SDS011;43154;50.966;18.316;2023-04-04T04:17:46;23.90;;;8.00;;
57311;SDS011;43154;50.966;18.316;2023-04-04T04:20:11;22.90;;;8.40;;
57311;SDS011;43154;50.966;18.316;2023-04-04T04:22:37;21.70;;;8.60;;
57311;SDS011;43154;50.966;18.316;2023-04-04T04:25:03;22.30;;;8.60;;
57311;SDS011;43154;50.966;18.316;2023-04-04T04:27:31;21.40;;;8.40;;
57311;SDS011;43154;50.966;18.316;2023-04-04T04:29:57;22.70;;;8.40;;
57311;SDS011;43154;50.966;18.316;2023-04-04T04:32:23;22.20;;;8.10;;
57311;SDS011;43154;50.966;18.316;2023-04-04T04:34:50;22.40;;;8.20;;
57311;SDS011;43154;50.966;18.316;2023-04-04T04:37:18;23.80;;;8.60;;
57311;SDS011;43154;50.966;18.316;2023-04-04T04:39:44;24.70;;;9.30;;
57311;SDS011;43154;50.966;18.316;2023-04-04T04:42:10;21.80;;;8.20;;
57311;SDS011;43154;50.966;18.316;2023-04-04T04:44:35;23.10;;;9.10;;
57311;SDS011;43154;50.966;18.316;2023-04-04T04:47:02;23.10;;;9.20;;
57311;SDS011;43154;50.966;18.316;2023-04-04T04:49:28;27.00;;;10.20;;
57311;SDS011;43154;50.966;18.316;2023-04-04T04:51:55;23.70;;;9.30;;
57311;SDS011;43154;50.966;18.316;2023-04-04T04:54:21;27.70;;;11.20;;
57311;SDS011;43154;50.966;18.316;2023-04-04T04:56:50;28.70;;;10.50;;
57311;SDS011;43154;50.966;18.316;2023-04-04T04:59:16;28.70;;;10.60;;
57311;SDS011;43154;50.966;18.316;2023-04-04T05:01:42;26.50;;;10.30;;
57311;SDS011;43154;50.966;18.316;2023-04-04T05:04:07;24.50;;;9.40;;
57311;SDS011;43154;50.966;18.316;2023-04-04T05:06:33;26.50;;;10.30;;
57311;SDS011;43154;50.966;18.316;2023-04-04T05:09:00;26.90;;;10.10;;
57311;SDS011;43154;50.966;18.316;2023-04-04T05:11:25;24.30;;;9.70;;
57311;SDS011;43154;50.966;18.316;2023-04-04T05:13:51;21.20;;;8.40;;
57311;SDS011;43154;50.966;18.316;2023-04-04T05:16:16;23.50;;;8.40;;
57311;SDS011;43154;50.966;18.316;2023-04-04T05:18:45;24.00;;;9.20;;
57311;SDS011;43154;50.966;18.316;2023-04-04T05:21:11;20.40;;;7.90;;
57311;SDS011;43154;50.966;18.316;2023-04-04T05:23:37;24.80;;;9.20;;
57311;SDS011;43154;50.966;18.316;2023-04-04T05:26:03;23.50;;;8.10;;
57311;SDS011;43154;50.966;18.316;2023-04-04T05:28:28;29.80;;;8.80;;
57311;SDS011;43154;50.966;18.316;2023-04-04T05:30:54;24.90;;;9.50;;
57311;SDS011;43154;50.966;18.316;2023-04-04T05:33:19;27.60;;;9.90;;
57311;SDS011;43154;50.966;18.316;2023-04-04T05:35:48;34.20;;;11.80;;
57311;SDS011;43154;50.966;18.316;2023-04-04T05:38:15;26.50;;;9.40;;
57311;SDS011;43154;50.966;18.316;2023-04-04T05:40:41;22.40;;;8.40;;
57311;SDS011;43154;50.966;18.316;2023-04-04T05:43:07;22.80;;;9.10;;
57311;SDS011;43154;50.966;18.316;2023-04-04T05:45:33;22.80;;;8.50;;
57311;SDS011;43154;50.966;18.316;2023-04-04T05:48:00;18.60;;;6.90;;
57311;SDS011;43154;50.966;18.316;2023-04-04T05:50:29;36.40;;;13.50;;
57311;SDS011;43154;50.966;18.316;2023-04-04T05:52:57;30.00;;;9.70;;
57311;SDS011;43154;50.966;18.316;2023-04-04T05:55:23;23.30;;;7.50;;
57311;SDS011;43154;50.966;18.316;2023-04-04T05:57:49;26.60;;;8.60;;
57311;SDS011;43154;50.966;18.316;2023-04-04T06:00:16;21.90;;;7.20;;
57311;SDS011;43154;50.966;18.316;2023-04-04T06:02:43;22.30;;;7.60;;
57311;SDS011;43154;50.966;18.316;2023-04-04T06:05:09;19.80;;;6.40;;
57311;SDS011;43154;50.966;18.316;2023-04-04T06:07:36;21.60;;;8.90;;
57311;SDS011;43154;50.966;18.316;2023-04-04T06:10:02;25.70;;;9.30;;
57311;SDS011;43154;50.966;18.316;2023-04-04T06:12:32;21.80;;;6.80;;
57311;SDS011;43154;50.966;18.316;2023-04-04T06:14:58;52.80;;;18.70;;
57311;SDS011;43154;50.966;18.316;2023-04-04T06:17:24;40.50;;;14.80;;
57311;SDS011;43154;50.966;18.316;2023-04-04T06:19:50;30.70;;;9.90;;
57311;SDS011;43154;50.966;18.316;2023-04-04T06:22:17;16.20;;;5.00;;
57311;SDS011;43154;50.966;18.316;2023-04-04T06:24:43;16.90;;;5.20;;
57311;SDS011;43154;50.966;18.316;2023-04-04T06:27:09;24.10;;;7.30;;
57311;SDS011;43154;50.966;18.316;2023-04-04T06:29:35;42.10;;;12.10;;
57311;SDS011;43154;50.966;18.316;2023-04-04T06:32:01;38.60;;;11.20;;
57311;SDS011;43154;50.966;18.316;2023-04-04T06:34:29;16.60;;;4.90;;
57311;SDS011;43154;50.966;18.316;2023-04-04T06:36:55;33.30;;;8.90;;
57311;SDS011;43154;50.966;18.316;2023-04-04T06:39:21;16.00;;;5.20;;
57311;SDS011;43154;50.966;18.316;2023-04-04T06:41:47;32.70;;;7.50;;
57311;SDS011;43154;50.966;18.316;2023-04-04T06:44:14;70.80;;;17.60;;
57311;SDS011;43154;50.966;18.316;2023-04-04T06:46:41;18.90;;;5.00;;
57311;SDS011;43154;50.966;18.316;2023-04-04T06:49:06;16.10;;;4.10;;
57311;SDS011;43154;50.966;18.316;2023-04-04T06:51:32;13.20;;;4.10;;
57311;SDS011;43154;50.966;18.316;2023-04-04T06:53:59;11.10;;;2.90;;
57311;SDS011;43154;50.966;18.316;2023-04-04T06:56:25;15.00;;;4.10;;
57311;SDS011;43154;50.966;18.316;2023-04-04T06:58:52;11.70;;;3.10;;
57311;SDS011;43154;50.966;18.316;2023-04-04T07:01:18;10.00;;;2.60;;
57311;SDS011;43154;50.966;18.316;2023-04-04T07:03:43;11.30;;;2.80;;
57311;SDS011;43154;50.966;18.316;2023-04-04T07:06:10;12.00;;;3.20;;
57311;SDS011;43154;50.966;18.316;2023-04-04T07:08:36;11.90;;;3.30;;
57311;SDS011;43154;50.966;18.316;2023-04-04T07:11:04;11.10;;;3.10;;
57311;SDS011;43154;50.966;18.316;2023-04-04T07:13:32;11.50;;;2.80;;
57311;SDS011;43154;50.966;18.316;2023-04-04T07:16:00;11.40;;;2.70;;
57311;SDS011;43154;50.966;18.316;2023-04-04T07:18:27;14.80;;;3.60;;
57311;SDS011;43154;50.966;18.316;2023-04-04T07:20:52;11.00;;;3.00;;
57311;SDS011;43154;50.966;18.316;2023-04-04T07:23:18;10.10;;;3.00;;
57311;SDS011;43154;50.966;18.316;2023-04-04T07:25:45;11.40;;;2.60;;
57311;SDS011;43154;50.966;18.316;2023-04-04T07:28:11;13.00;;;2.70;;
57311;SDS011;43154;50.966;18.316;2023-04-04T07:30:37;10.80;;;2.80;;
57311;SDS011;43154;50.966;18.316;2023-04-04T07:33:03;40.40;;;11.30;;
57311;SDS011;43154;50.966;18.316;2023-04-04T07:35:29;18.80;;;5.50;;
57311;SDS011;43154;50.966;18.316;2023-04-04T07:37:55;27.90;;;7.30;;
57311;SDS011;43154;50.966;18.316;2023-04-04T07:40:22;11.90;;;3.40;;
57311;SDS011;43154;50.966;18.316;2023-04-04T07:42:49;18.30;;;5.10;;
57311;SDS011;43154;50.966;18.316;2023-04-04T07:45:16;14.40;;;3.80;;
57311;SDS011;43154;50.966;18.316;2023-04-04T07:47:43;29.40;;;8.80;;
57311;SDS011;43154;50.966;18.316;2023-04-04T07:50:11;16.00;;;4.20;;
57311;SDS011;43154;50.966;18.316;2023-04-04T07:52:39;11.50;;;2.80;;
57311;SDS011;43154;50.966;18.316;2023-04-04T07:55:08;10.30;;;2.60;;
57311;SDS011;43154;50.966;18.316;2023-04-04T07:57:38;12.20;;;2.80;;
57311;SDS011;43154;50.966;18.316;2023-04-04T08:00:07;19.90;;;5.60;;
57311;SDS011;43154;50.966;18.316;2023-04-04T08:02:37;23.30;;;6.60;;
57311;SDS011;43154;50.966;18.316;2023-04-04T08:05:03;27.50;;;8.80;;
57311;SDS011;43154;50.966;18.316;2023-04-04T08:07:31;14.00;;;4.30;;
57311;SDS011;43154;50.966;18.316;2023-04-04T08:09:58;13.00;;;3.90;;
57311;SDS011;43154;50.966;18.316;2023-04-04T08:12:24;28.10;;;9.40;;
57311;SDS011;43154;50.966;18.316;2023-04-04T08:14:50;22.20;;;5.50;;
57311;SDS011;43154;50.966;18.316;2023-04-04T08:17:17;13.40;;;3.80;;
57311;SDS011;43154;50.966;18.316;2023-04-04T08:19:44;16.90;;;5.30;;
57311;SDS011;43154;50.966;18.316;2023-04-04T08:22:10;19.80;;;5.70;;
57311;SDS011;43154;50.966;18.316;2023-04-04T08:24:36;11.10;;;2.70;;
57311;SDS011;43154;50.966;18.316;2023-04-04T08:27:02;10.00;;;2.60;;
57311;SDS011;43154;50.966;18.316;2023-04-04T08:29:29;9.30;;;2.20;;
57311;SDS011;43154;50.966;18.316;2023-04-04T08:31:57;13.10;;;3.00;;
57311;SDS011;43154;50.966;18.316;2023-04-04T08:34:23;13.00;;;2.70;;
57311;SDS011;43154;50.966;18.316;2023-04-04T08:36:49;12.70;;;2.70;;
57311;SDS011;43154;50.966;18.316;2023-04-04T08:39:15;12.70;;;2.50;;
57311;SDS011;43154;50.966;18.316;2023-04-04T08:41:42;13.20;;;3.30;;
57311;SDS011;43154;50.966;18.316;2023-04-04T08:44:10;17.90;;;5.50;;
57311;SDS011;43154;50.966;18.316;2023-04-04T08:46:46;10.90;;;2.90;;
57311;SDS011;43154;50.966;18.316;2023-04-04T09:23:56;14.20;;;4.70;;
57311;SDS011;43154;50.966;18.316;2023-04-04T09:26:23;15.30;;;4.80;;
57311;SDS011;43154;50.966;18.316;2023-04-04T09:28:52;14.20;;;4.60;;
57311;SDS011;43154;50.966;18.316;2023-04-04T09:31:18;13.50;;;4.20;;
57311;SDS011;43154;50.966;18.316;2023-04-04T09:33:46;10.90;;;3.10;;
57311;SDS011;43154;50.966;18.316;2023-04-04T09:36:15;13.40;;;4.60;;
57311;SDS011;43154;50.966;18.316;2023-04-04T09:38:43;12.70;;;3.80;;
57311;SDS011;43154;50.966;18.316;2023-04-04T09:41:10;15.00;;;4.50;;
57311;SDS011;43154;50.966;18.316;2023-04-04T09:43:39;14.80;;;5.80;;
57311;SDS011;43154;50.966;18.316;2023-04-04T09:46:04;13.70;;;4.30;;
57311;SDS011;43154;50.966;18.316;2023-04-04T09:48:32;13.40;;;4.80;;
57311;SDS011;43154;50.966;18.316;2023-04-04T09:50:59;12.80;;;4.50;;
57311;SDS011;43154;50.966;18.316;2023-04-04T09:53:28;16.40;;;4.50;;
57311;SDS011;43154;50.966;18.316;2023-04-04T09:55:54;14.80;;;3.90;;
57311;SDS011;43154;50.966;18.316;2023-04-04T09:58:25;9.40;;;2.70;;
57311;SDS011;43154;50.966;18.316;2023-04-04T10:00:57;14.90;;;4.40;;
57311;SDS011;43154;50.966;18.316;2023-04-04T10:03:25;14.50;;;5.00;;
57311;SDS011;43154;50.966;18.316;2023-04-04T10:11:09;12.70;;;4.30;;
57311;SDS011;43154;50.966;18.316;2023-04-04T10:13:39;12.60;;;3.70;;
57311;SDS011;43154;50.966;18.316;2023-04-04T10:16:08;10.70;;;3.30;;
57311;SDS011;43154;50.966;18.316;2023-04-04T10:18:35;11.70;;;3.30;;
57311;SDS011;43154;50.966;18.316;2023-04-04T10:21:03;10.40;;;3.20;;
57311;SDS011;43154;50.966;18.316;2023-04-04T10:23:37;12.90;;;3.80;;
57311;SDS011;43154;50.966;18.316;2023-04-04T10:26:03;11.20;;;3.10;;
57311;SDS011;43154;50.966;18.316;2023-04-04T10:28:30;13.10;;;3.20;;
57311;SDS011;43154;50.966;18.316;2023-04-04T10:36:53;22.80;;;4.40;;
57311;SDS011;43154;50.966;18.316;2023-04-04T10:39:45;11.70;;;3.30;;
57311;SDS011;43154;50.966;18.316;2023-04-04T10:42:16;9.70;;;3.30;;
57311;SDS011;43154;50.966;18.316;2023-04-04T10:44:44;10.50;;;3.10;;
57311;SDS011;43154;50.966;18.316;2023-04-04T10:47:14;8.80;;;2.80;;
57311;SDS011;43154;50.966;18.316;2023-04-04T10:49:47;11.30;;;3.40;;
57311;SDS011;43154;50.966;18.316;2023-04-04T10:52:15;12.10;;;3.20;;
57311;SDS011;43154;50.966;18.316;2023-04-04T10:54:43;10.50;;;3.00;;
57311;SDS011;43154;50.966;18.316;2023-04-04T10:57:12;11.20;;;2.80;;
57311;SDS011;43154;50.966;18.316;2023-04-04T10:59:59;13.10;;;3.50;;
57311;SDS011;43154;50.966;18.316;2023-04-04T11:02:53;11.60;;;3.40;;
57311;SDS011;43154;50.966;18.316;2023-04-04T11:08:22;11.40;;;3.40;;
57311;SDS011;43154;50.966;18.316;2023-04-04T11:10:51;10.90;;;3.30;;
57311;SDS011;43154;50.966;18.316;2023-04-04T11:13:24;10.30;;;2.90;;
57311;SDS011;43154;50.966;18.316;2023-04-04T11:15:57;10.20;;;2.90;;
57311;SDS011;43154;50.966;18.316;2023-04-04T11:21:07;10.60;;;3.10;;
57311;SDS011;43154;50.966;18.316;2023-04-04T11:28:56;10.50;;;3.10;;
57311;SDS011;43154;50.966;18.316;2023-04-04T11:31:23;11.30;;;3.00;;
57311;SDS011;43154;50.966;18.316;2023-04-04T11:33:55;11.50;;;3.40;;
57311;SDS011;43154;50.966;18.316;2023-04-04T11:39:05;12.40;;;3.40;;
57311;SDS011;43154;50.966;18.316;2023-04-04T11:44:13;11.20;;;3.70;;
57311;SDS011;43154;50.966;18.316;2023-04-04T11:46:40;10.80;;;3.50;;
57311;SDS011;43154;50.966;18.316;2023-04-04T11:49:09;10.40;;;3.30;;
57311;SDS011;43154;50.966;18.316;2023-04-04T11:51:36;12.10;;;3.60;;
57311;SDS011;43154;50.966;18.316;2023-04-04T11:54:12;13.80;;;3.70;;
57311;SDS011;43154;50.966;18.316;2023-04-04T11:56:42;13.80;;;3.20;;
57311;SDS011;43154;50.966;18.316;2023-04-04T11:59:16;11.90;;;3.80;;
57311;SDS011;43154;50.966;18.316;2023-04-04T12:01:44;14.20;;;4.50;;
57311;SDS011;43154;50.966;18.316;2023-04-04T12:04:10;12.30;;;4.20;;
57311;SDS011;43154;50.966;18.316;2023-04-04T12:06:37;12.50;;;4.50;;
57311;SDS011;43154;50.966;18.316;2023-04-04T12:09:04;12.40;;;5.10;;
57311;SDS011;43154;50.966;18.316;2023-04-04T12:11:34;12.00;;;4.50;;
57311;SDS011;43154;50.966;18.316;2023-04-04T12:14:00;11.80;;;4.40;;
57311;SDS011;43154;50.966;18.316;2023-04-04T12:16:27;12.60;;;5.20;;
57311;SDS011;43154;50.966;18.316;2023-04-04T12:18:59;16.40;;;5.90;;
57311;SDS011;43154;50.966;18.316;2023-04-04T12:23:52;12.00;;;4.80;;
57311;SDS011;43154;50.966;18.316;2023-04-04T12:26:18;17.40;;;6.30;;
57311;SDS011;43154;50.966;18.316;2023-04-04T12:28:57;15.20;;;6.80;;
57311;SDS011;43154;50.966;18.316;2023-04-04T12:31:24;14.50;;;6.70;;
57311;SDS011;43154;50.966;18.316;2023-04-04T12:33:52;15.20;;;6.20;;
57311;SDS011;43154;50.966;18.316;2023-04-04T12:36:17;12.30;;;5.60;;
57311;SDS011;43154;50.966;18.316;2023-04-04T12:39:00;14.60;;;6.40;;
57311;SDS011;43154;50.966;18.316;2023-04-04T12:41:28;12.60;;;5.90;;
57311;SDS011;43154;50.966;18.316;2023-04-04T12:44:04;13.30;;;5.80;;
57311;SDS011;43154;50.966;18.316;2023-04-04T12:46:36;12.70;;;5.60;;
57311;SDS011;43154;50.966;18.316;2023-04-04T12:49:06;15.30;;;6.30;;
57311;SDS011;43154;50.966;18.316;2023-04-04T12:51:38;13.70;;;5.40;;
57311;SDS011;43154;50.966;18.316;2023-04-04T12:54:03;12.50;;;5.80;;
57311;SDS011;43154;50.966;18.316;2023-04-04T12:56:31;13.20;;;5.90;;
57311;SDS011;43154;50.966;18.316;2023-04-04T12:58:59;13.70;;;5.80;;
57311;SDS011;43154;50.966;18.316;2023-04-04T13:01:30;14.00;;;5.90;;
57311;SDS011;43154;50.966;18.316;2023-04-04T13:04:01;13.60;;;5.80;;
57311;SDS011;43154;50.966;18.316;2023-04-04T13:06:29;11.80;;;4.60;;
57311;SDS011;43154;50.966;18.316;2023-04-04T13:08:57;13.30;;;5.50;;
57311;SDS011;43154;50.966;18.316;2023-04-04T13:11:23;13.50;;;5.70;;
57311;SDS011;43154;50.966;18.316;2023-04-04T13:14:01;14.40;;;5.50;;
57311;SDS011;43154;50.966;18.316;2023-04-04T13:16:31;14.20;;;5.40;;
57311;SDS011;43154;50.966;18.316;2023-04-04T13:18:58;13.50;;;5.40;;
57311;SDS011;43154;50.966;18.316;2023-04-04T13:24:42;13.40;;;5.80;;
57311;SDS011;43154;50.966;18.316;2023-04-04T13:27:19;13.50;;;5.50;;
57311;SDS011;43154;50.966;18.316;2023-04-04T13:29:45;15.60;;;5.70;;
57311;SDS011;43154;50.966;18.316;2023-04-04T13:32:16;15.40;;;5.60;;
57311;SDS011;43154;50.966;18.316;2023-04-04T13:34:42;19.10;;;7.30;;
57311;SDS011;43154;50.966;18.316;2023-04-04T13:37:08;13.10;;;4.90;;
57311;SDS011;43154;50.966;18.316;2023-04-04T13:39:37;15.20;;;5.80;;
57311;SDS011;43154;50.966;18.316;2023-04-04T13:42:03;16.00;;;6.10;;
57311;SDS011;43154;50.966;18.316;2023-04-04T13:44:32;14.40;;;5.90;;
57311;SDS011;43154;50.966;18.316;2023-04-04T13:46:58;28.20;;;12.10;;
57311;SDS011;43154;50.966;18.316;2023-04-04T13:49:24;29.60;;;11.70;;
57311;SDS011;43154;50.966;18.316;2023-04-04T13:51:51;16.50;;;5.50;;
57311;SDS011;43154;50.966;18.316;2023-04-04T13:54:17;15.10;;;7.20;;
57311;SDS011;43154;50.966;18.316;2023-04-04T13:56:44;15.00;;;6.90;;
57311;SDS011;43154;50.966;18.316;2023-04-04T13:59:11;17.60;;;6.10;;
57311;SDS011;43154;50.966;18.316;2023-04-04T14:01:39;14.10;;;5.40;;
57311;SDS011;43154;50.966;18.316;2023-04-04T14:04:05;15.10;;;5.40;;
57311;SDS011;43154;50.966;18.316;2023-04-04T14:06:31;12.30;;;4.50;;
57311;SDS011;43154;50.966;18.316;2023-04-04T14:08:58;13.50;;;5.70;;
57311;SDS011;43154;50.966;18.316;2023-04-04T14:11:25;16.70;;;6.90;;
57311;SDS011;43154;50.966;18.316;2023-04-04T14:13:56;14.70;;;6.00;;
57311;SDS011;43154;50.966;18.316;2023-04-04T14:16:22;12.30;;;5.10;;
57311;SDS011;43154;50.966;18.316;2023-04-04T14:18:49;12.90;;;4.80;;
57311;SDS011;43154;50.966;18.316;2023-04-04T14:21:15;17.30;;;5.90;;
57311;SDS011;43154;50.966;18.316;2023-04-04T14:23:43;13.80;;;5.40;;
57311;SDS011;43154;50.966;18.316;2023-04-04T14:26:10;13.10;;;4.40;;
57311;SDS011;43154;50.966;18.316;2023-04-04T14:28:36;11.60;;;4.70;;
57311;SDS011;43154;50.966;18.316;2023-04-04T14:31:03;13.60;;;5.30;;
57311;SDS011;43154;50.966;18.316;2023-04-04T14:33:34;14.30;;;5.40;;
57311;SDS011;43154;50.966;18.316;2023-04-04T14:36:03;12.00;;;5.20;;
57311;SDS011;43154;50.966;18.316;2023-04-04T14:38:29;17.80;;;6.90;;
57311;SDS011;43154;50.966;18.316;2023-04-04T14:40:57;33.30;;;12.70;;
57311;SDS011;43154;50.966;18.316;2023-04-04T14:43:25;39.80;;;13.50;;
57311;SDS011;43154;50.966;18.316;2023-04-04T14:45:53;61.40;;;17.70;;
57311;SDS011;43154;50.966;18.316;2023-04-04T14:48:20;19.60;;;5.80;;
57311;SDS011;43154;50.966;18.316;2023-04-04T14:50:46;19.30;;;5.90;;
57311;SDS011;43154;50.966;18.316;2023-04-04T14:53:12;38.90;;;10.90;;
57311;SDS011;43154;50.966;18.316;2023-04-04T14:55:38;41.60;;;12.20;;
57311;SDS011;43154;50.966;18.316;2023-04-04T14:58:04;28.60;;;8.70;;
57311;SDS011;43154;50.966;18.316;2023-04-04T15:00:30;35.70;;;9.80;;
57311;SDS011;43154;50.966;18.316;2023-04-04T15:02:56;23.00;;;7.30;;
57311;SDS011;43154;50.966;18.316;2023-04-04T15:05:23;15.90;;;5.30;;
57311;SDS011;43154;50.966;18.316;2023-04-04T15:07:50;39.20;;;11.90;;
57311;SDS011;43154;50.966;18.316;2023-04-04T15:10:17;32.50;;;9.40;;
57311;SDS011;43154;50.966;18.316;2023-04-04T15:12:44;19.50;;;6.80;;
57311;SDS011;43154;50.966;18.316;2023-04-04T15:15:10;13.20;;;4.40;;
57311;SDS011;43154;50.966;18.316;2023-04-04T15:17:38;15.80;;;5.90;;
57311;SDS011;43154;50.966;18.316;2023-04-04T15:20:04;13.90;;;5.10;;
57311;SDS011;43154;50.966;18.316;2023-04-04T15:22:32;14.00;;;5.60;;
57311;SDS011;43154;50.966;18.316;2023-04-04T15:25:03;15.00;;;6.20;;
57311;SDS011;43154;50.966;18.316;2023-04-04T15:27:31;13.80;;;5.50;;
57311;SDS011;43154;50.966;18.316;2023-04-04T15:29:57;20.60;;;6.80;;
57311;SDS011;43154;50.966;18.316;2023-04-04T15:32:23;14.70;;;5.90;;